sensor_id;sensor_type;location;lat;lon;timestamp;P1;durP1;ratioP1;P2;durP2;ratioP2
64487;SDS011;50864;45.050;39.014;2022-08-14T00:01:59;433.67;;;117.87;;
64487;SDS011;50864;45.050;39.014;2022-08-14T00:04:25;376.15;;;105.85;;
64487;SDS011;50864;45.050;39.014;2022-08-14T00:06:51;387.08;;;106.87;;
64487;SDS011;50864;45.050;39.014;2022-08-14T00:09:17;431.55;;;115.80;;
64487;SDS011;50864;45.050;39.014;2022-08-14T00:11:43;397.98;;;109.12;;
64487;SDS011;50864;45.050;39.014;2022-08-14T00:14:09;422.40;;;116.72;;
64487;SDS011;50864;45.050;39.014;2022-08-14T00:16:35;446.77;;;120.82;;
64487;SDS011;50864;45.050;39.014;2022-08-14T00:19:03;392.27;;;109.75;;
64487;SDS011;50864;45.050;39.014;2022-08-14T00:21:29;406.77;;;108.97;;
64487;SDS011;50864;45.050;39.014;2022-08-14T00:23:55;413.63;;;113.37;;
64487;SDS011;50864;45.050;39.014;2022-08-14T00:26:22;425.70;;;117.57;;
64487;SDS011;50864;45.050;39.014;2022-08-14T00:28:49;420.52;;;116.80;;
64487;SDS011;50864;45.050;39.014;2022-08-14T00:31:15;370.70;;;104.95;;
64487;SDS011;50864;45.050;39.014;2022-08-14T00:33:41;384.17;;;108.82;;
64487;SDS011;50864;45.050;39.014;2022-08-14T00:36:07;411.45;;;115.28;;
64487;SDS011;50864;45.050;39.014;2022-08-14T00:38:35;443.83;;;122.70;;
64487;SDS011;50864;45.050;39.014;2022-08-14T00:41:03;458.77;;;125.30;;
64487;SDS011;50864;45.050;39.014;2022-08-14T00:43:29;404.70;;;113.93;;
64487;SDS011;50864;45.050;39.014;2022-08-14T00:45:55;369.85;;;105.63;;
64487;SDS011;50864;45.050;39.014;2022-08-14T00:48:21;424.00;;;119.40;;
64487;SDS011;50864;45.050;39.014;2022-08-14T00:50:47;455.70;;;126.00;;
64487;SDS011;50864;45.050;39.014;2022-08-14T00:53:12;455.20;;;125.30;;
64487;SDS011;50864;45.050;39.014;2022-08-14T00:55:41;424.30;;;117.85;;
64487;SDS011;50864;45.050;39.014;2022-08-14T00:58:07;464.42;;;127.90;;
64487;SDS011;50864;45.050;39.014;2022-08-14T01:00:52;457.38;;;126.50;;
64487;SDS011;50864;45.050;39.014;2022-08-14T01:03:18;471.17;;;130.43;;
64487;SDS011;50864;45.050;39.014;2022-08-14T01:05:44;428.08;;;119.20;;
64487;SDS011;50864;45.050;39.014;2022-08-14T01:08:16;458.05;;;127.43;;
64487;SDS011;50864;45.050;39.014;2022-08-14T01:10:43;424.50;;;117.10;;
64487;SDS011;50864;45.050;39.014;2022-08-14T01:13:21;425.27;;;114.93;;
64487;SDS011;50864;45.050;39.014;2022-08-14T01:15:51;496.48;;;135.75;;
64487;SDS011;50864;45.050;39.014;2022-08-14T01:18:17;406.35;;;113.57;;
64487;SDS011;50864;45.050;39.014;2022-08-14T01:21:02;415.90;;;117.78;;
64487;SDS011;50864;45.050;39.014;2022-08-14T01:23:29;426.85;;;121.22;;
64487;SDS011;50864;45.050;39.014;2022-08-14T01:25:56;443.52;;;123.75;;
64487;SDS011;50864;45.050;39.014;2022-08-14T01:28:23;422.00;;;116.75;;
64487;SDS011;50864;45.050;39.014;2022-08-14T01:30:51;413.50;;;115.35;;
64487;SDS011;50864;45.050;39.014;2022-08-14T01:33:24;452.13;;;123.55;;
64487;SDS011;50864;45.050;39.014;2022-08-14T01:35:55;401.35;;;111.95;;
64487;SDS011;50864;45.050;39.014;2022-08-14T01:38:23;432.02;;;118.50;;
64487;SDS011;50864;45.050;39.014;2022-08-14T01:40:50;391.80;;;110.10;;
64487;SDS011;50864;45.050;39.014;2022-08-14T01:43:17;395.92;;;110.55;;
64487;SDS011;50864;45.050;39.014;2022-08-14T01:45:43;433.92;;;119.43;;
64487;SDS011;50864;45.050;39.014;2022-08-14T01:48:09;407.67;;;113.30;;
64487;SDS011;50864;45.050;39.014;2022-08-14T01:50:36;406.30;;;112.75;;
64487;SDS011;50864;45.050;39.014;2022-08-14T01:53:02;439.87;;;121.90;;
64487;SDS011;50864;45.050;39.014;2022-08-14T01:55:28;408.98;;;113.37;;
64487;SDS011;50864;45.050;39.014;2022-08-14T01:57:56;447.92;;;122.00;;
64487;SDS011;50864;45.050;39.014;2022-08-14T02:00:23;389.17;;;107.03;;
64487;SDS011;50864;45.050;39.014;2022-08-14T02:02:49;312.10;;;92.05;;
64487;SDS011;50864;45.050;39.014;2022-08-14T02:05:14;335.95;;;94.72;;
64487;SDS011;50864;45.050;39.014;2022-08-14T02:07:42;366.92;;;101.90;;
64487;SDS011;50864;45.050;39.014;2022-08-14T02:10:11;339.58;;;97.70;;
64487;SDS011;50864;45.050;39.014;2022-08-14T02:12:38;333.00;;;95.65;;
64487;SDS011;50864;45.050;39.014;2022-08-14T02:15:04;327.35;;;93.22;;
64487;SDS011;50864;45.050;39.014;2022-08-14T02:17:31;337.10;;;98.07;;
64487;SDS011;50864;45.050;39.014;2022-08-14T02:19:58;323.33;;;95.53;;
64487;SDS011;50864;45.050;39.014;2022-08-14T02:22:24;337.02;;;96.07;;
64487;SDS011;50864;45.050;39.014;2022-08-14T02:24:50;343.48;;;98.03;;
64487;SDS011;50864;45.050;39.014;2022-08-14T02:27:16;342.92;;;97.30;;
64487;SDS011;50864;45.050;39.014;2022-08-14T02:29:42;372.15;;;106.97;;
64487;SDS011;50864;45.050;39.014;2022-08-14T02:32:09;374.15;;;107.05;;
64487;SDS011;50864;45.050;39.014;2022-08-14T02:34:36;391.52;;;110.18;;
64487;SDS011;50864;45.050;39.014;2022-08-14T02:37:04;357.17;;;102.60;;
64487;SDS011;50864;45.050;39.014;2022-08-14T02:39:31;358.95;;;103.43;;
64487;SDS011;50864;45.050;39.014;2022-08-14T02:41:57;392.55;;;112.35;;
64487;SDS011;50864;45.050;39.014;2022-08-14T02:44:23;394.45;;;112.50;;
64487;SDS011;50864;45.050;39.014;2022-08-14T02:46:50;413.58;;;117.50;;
64487;SDS011;50864;45.050;39.014;2022-08-14T02:49:16;427.62;;;119.93;;
64487;SDS011;50864;45.050;39.014;2022-08-14T02:51:46;452.85;;;125.12;;
64487;SDS011;50864;45.050;39.014;2022-08-14T02:54:12;431.67;;;121.80;;
64487;SDS011;50864;45.050;39.014;2022-08-14T02:56:38;450.83;;;124.40;;
64487;SDS011;50864;45.050;39.014;2022-08-14T02:59:05;416.00;;;117.03;;
64487;SDS011;50864;45.050;39.014;2022-08-14T03:01:32;418.85;;;115.22;;
64487;SDS011;50864;45.050;39.014;2022-08-14T03:03:58;455.58;;;124.55;;
64487;SDS011;50864;45.050;39.014;2022-08-14T03:06:24;454.17;;;126.87;;
64487;SDS011;50864;45.050;39.014;2022-08-14T03:08:51;413.58;;;114.20;;
64487;SDS011;50864;45.050;39.014;2022-08-14T03:11:17;416.52;;;115.65;;
64487;SDS011;50864;45.050;39.014;2022-08-14T03:13:45;408.95;;;114.53;;
64487;SDS011;50864;45.050;39.014;2022-08-14T03:16:13;451.45;;;125.50;;
64487;SDS011;50864;45.050;39.014;2022-08-14T03:18:39;440.33;;;121.93;;
64487;SDS011;50864;45.050;39.014;2022-08-14T03:21:07;443.20;;;122.82;;
64487;SDS011;50864;45.050;39.014;2022-08-14T03:23:34;398.77;;;113.03;;
64487;SDS011;50864;45.050;39.014;2022-08-14T03:26:01;456.70;;;126.18;;
64487;SDS011;50864;45.050;39.014;2022-08-14T03:28:28;458.92;;;126.18;;
64487;SDS011;50864;45.050;39.014;2022-08-14T03:30:55;425.25;;;118.57;;
64487;SDS011;50864;45.050;39.014;2022-08-14T03:33:22;404.00;;;114.03;;
64487;SDS011;50864;45.050;39.014;2022-08-14T03:35:48;437.85;;;123.25;;
64487;SDS011;50864;45.050;39.014;2022-08-14T03:38:16;424.67;;;119.40;;
64487;SDS011;50864;45.050;39.014;2022-08-14T03:40:43;326.52;;;97.37;;
64487;SDS011;50864;45.050;39.014;2022-08-14T03:43:09;422.30;;;119.70;;
64487;SDS011;50864;45.050;39.014;2022-08-14T03:45:36;435.87;;;123.68;;
64487;SDS011;50864;45.050;39.014;2022-08-14T03:48:12;389.02;;;110.40;;
64487;SDS011;50864;45.050;39.014;2022-08-14T03:50:48;421.60;;;117.07;;
64487;SDS011;50864;45.050;39.014;2022-08-14T03:53:16;374.45;;;106.32;;
64487;SDS011;50864;45.050;39.014;2022-08-14T03:55:45;423.83;;;117.90;;
64487;SDS011;50864;45.050;39.014;2022-08-14T03:58:11;341.50;;;99.68;;
64487;SDS011;50864;45.050;39.014;2022-08-14T04:00:37;319.60;;;95.47;;
64487;SDS011;50864;45.050;39.014;2022-08-14T04:03:05;357.70;;;103.20;;
64487;SDS011;50864;45.050;39.014;2022-08-14T04:05:32;353.65;;;103.60;;
64487;SDS011;50864;45.050;39.014;2022-08-14T04:07:58;362.48;;;105.47;;
64487;SDS011;50864;45.050;39.014;2022-08-14T04:10:24;369.30;;;107.22;;
64487;SDS011;50864;45.050;39.014;2022-08-14T04:12:51;329.25;;;100.15;;
64487;SDS011;50864;45.050;39.014;2022-08-14T04:15:17;263.10;;;85.75;;
64487;SDS011;50864;45.050;39.014;2022-08-14T04:17:44;330.62;;;99.60;;
64487;SDS011;50864;45.050;39.014;2022-08-14T04:20:10;358.55;;;105.45;;
64487;SDS011;50864;45.050;39.014;2022-08-14T04:22:37;361.00;;;106.07;;
64487;SDS011;50864;45.050;39.014;2022-08-14T04:25:08;308.25;;;95.25;;
64487;SDS011;50864;45.050;39.014;2022-08-14T04:27:35;385.63;;;111.03;;
64487;SDS011;50864;45.050;39.014;2022-08-14T04:30:01;334.15;;;100.47;;
64487;SDS011;50864;45.050;39.014;2022-08-14T04:32:28;378.12;;;111.20;;
64487;SDS011;50864;45.050;39.014;2022-08-14T04:34:54;317.05;;;91.12;;
64487;SDS011;50864;45.050;39.014;2022-08-14T04:37:21;309.62;;;92.80;;
64487;SDS011;50864;45.050;39.014;2022-08-14T04:40:06;296.08;;;91.97;;
64487;SDS011;50864;45.050;39.014;2022-08-14T04:42:51;365.10;;;106.40;;
64487;SDS011;50864;45.050;39.014;2022-08-14T04:45:36;304.98;;;91.93;;
64487;SDS011;50864;45.050;39.014;2022-08-14T04:48:09;358.70;;;104.70;;
64487;SDS011;50864;45.050;39.014;2022-08-14T04:50:48;362.92;;;106.30;;
64487;SDS011;50864;45.050;39.014;2022-08-14T04:53:15;369.35;;;107.87;;
64487;SDS011;50864;45.050;39.014;2022-08-14T04:55:42;364.85;;;105.05;;
64487;SDS011;50864;45.050;39.014;2022-08-14T04:58:12;299.30;;;92.47;;
64487;SDS011;50864;45.050;39.014;2022-08-14T05:00:38;293.50;;;91.20;;
64487;SDS011;50864;45.050;39.014;2022-08-14T05:03:05;281.87;;;88.20;;
64487;SDS011;50864;45.050;39.014;2022-08-14T05:05:31;273.17;;;87.43;;
64487;SDS011;50864;45.050;39.014;2022-08-14T05:08:07;274.00;;;87.28;;
64487;SDS011;50864;45.050;39.014;2022-08-14T05:10:35;273.60;;;85.57;;
64487;SDS011;50864;45.050;39.014;2022-08-14T05:13:01;253.30;;;83.18;;
64487;SDS011;50864;45.050;39.014;2022-08-14T05:15:30;312.00;;;92.85;;
64487;SDS011;50864;45.050;39.014;2022-08-14T05:17:56;284.92;;;87.78;;
64487;SDS011;50864;45.050;39.014;2022-08-14T05:20:22;220.82;;;76.28;;
64487;SDS011;50864;45.050;39.014;2022-08-14T05:22:48;229.00;;;77.47;;
64487;SDS011;50864;45.050;39.014;2022-08-14T05:25:14;221.13;;;75.70;;
64487;SDS011;50864;45.050;39.014;2022-08-14T05:27:40;215.30;;;73.40;;
64487;SDS011;50864;45.050;39.014;2022-08-14T05:30:07;277.42;;;87.35;;
64487;SDS011;50864;45.050;39.014;2022-08-14T05:32:33;241.25;;;80.82;;
64487;SDS011;50864;45.050;39.014;2022-08-14T05:34:59;235.02;;;80.38;;
64487;SDS011;50864;45.050;39.014;2022-08-14T05:37:26;250.65;;;82.15;;
64487;SDS011;50864;45.050;39.014;2022-08-14T05:39:52;279.45;;;87.60;;
64487;SDS011;50864;45.050;39.014;2022-08-14T05:42:19;271.17;;;86.85;;
64487;SDS011;50864;45.050;39.014;2022-08-14T05:44:46;220.68;;;75.62;;
64487;SDS011;50864;45.050;39.014;2022-08-14T05:47:12;278.08;;;86.25;;
64487;SDS011;50864;45.050;39.014;2022-08-14T05:49:38;226.85;;;77.70;;
64487;SDS011;50864;45.050;39.014;2022-08-14T05:52:04;287.70;;;88.95;;
64487;SDS011;50864;45.050;39.014;2022-08-14T05:54:31;217.98;;;72.18;;
64487;SDS011;50864;45.050;39.014;2022-08-14T05:56:56;253.35;;;78.78;;
64487;SDS011;50864;45.050;39.014;2022-08-14T05:59:22;232.32;;;74.43;;
64487;SDS011;50864;45.050;39.014;2022-08-14T06:01:48;234.77;;;75.12;;
64487;SDS011;50864;45.050;39.014;2022-08-14T06:04:14;175.90;;;61.05;;
64487;SDS011;50864;45.050;39.014;2022-08-14T06:06:40;201.15;;;70.60;;
64487;SDS011;50864;45.050;39.014;2022-08-14T06:09:06;203.48;;;69.12;;
64487;SDS011;50864;45.050;39.014;2022-08-14T06:11:33;240.07;;;76.10;;
64487;SDS011;50864;45.050;39.014;2022-08-14T06:13:59;188.65;;;66.30;;
64487;SDS011;50864;45.050;39.014;2022-08-14T06:16:25;190.48;;;68.32;;
64487;SDS011;50864;45.050;39.014;2022-08-14T06:18:51;221.60;;;74.72;;
64487;SDS011;50864;45.050;39.014;2022-08-14T06:21:17;133.85;;;51.83;;
64487;SDS011;50864;45.050;39.014;2022-08-14T06:23:43;173.80;;;59.47;;
64487;SDS011;50864;45.050;39.014;2022-08-14T06:26:09;193.18;;;66.25;;
64487;SDS011;50864;45.050;39.014;2022-08-14T06:28:35;136.68;;;53.38;;
64487;SDS011;50864;45.050;39.014;2022-08-14T06:31:01;132.27;;;52.10;;
64487;SDS011;50864;45.050;39.014;2022-08-14T06:33:27;192.00;;;62.25;;
64487;SDS011;50864;45.050;39.014;2022-08-14T06:35:53;169.43;;;57.80;;
64487;SDS011;50864;45.050;39.014;2022-08-14T06:38:20;133.65;;;52.00;;
64487;SDS011;50864;45.050;39.014;2022-08-14T06:40:47;142.10;;;54.00;;
64487;SDS011;50864;45.050;39.014;2022-08-14T06:43:14;157.43;;;56.08;;
64487;SDS011;50864;45.050;39.014;2022-08-14T06:45:41;118.87;;;49.80;;
64487;SDS011;50864;45.050;39.014;2022-08-14T06:48:11;127.05;;;50.15;;
64487;SDS011;50864;45.050;39.014;2022-08-14T06:50:38;133.27;;;52.42;;
64487;SDS011;50864;45.050;39.014;2022-08-14T06:53:04;109.32;;;44.28;;
64487;SDS011;50864;45.050;39.014;2022-08-14T06:55:31;103.95;;;43.20;;
64487;SDS011;50864;45.050;39.014;2022-08-14T06:57:57;162.50;;;56.42;;
64487;SDS011;50864;45.050;39.014;2022-08-14T07:00:24;131.57;;;50.63;;
64487;SDS011;50864;45.050;39.014;2022-08-14T07:02:50;134.05;;;52.85;;
64487;SDS011;50864;45.050;39.014;2022-08-14T07:05:35;166.48;;;55.83;;
64487;SDS011;50864;45.050;39.014;2022-08-14T07:08:17;149.87;;;51.40;;
64487;SDS011;50864;45.050;39.014;2022-08-14T07:10:44;135.15;;;49.78;;
64487;SDS011;50864;45.050;39.014;2022-08-14T07:13:11;121.13;;;49.72;;
64487;SDS011;50864;45.050;39.014;2022-08-14T07:15:38;127.32;;;50.88;;
64487;SDS011;50864;45.050;39.014;2022-08-14T07:18:05;155.98;;;56.13;;
64487;SDS011;50864;45.050;39.014;2022-08-14T07:20:32;134.45;;;50.30;;
64487;SDS011;50864;45.050;39.014;2022-08-14T07:22:59;159.87;;;56.67;;
64487;SDS011;50864;45.050;39.014;2022-08-14T07:25:26;160.55;;;56.15;;
64487;SDS011;50864;45.050;39.014;2022-08-14T07:27:53;124.93;;;48.78;;
64487;SDS011;50864;45.050;39.014;2022-08-14T07:30:19;132.35;;;51.00;;
64487;SDS011;50864;45.050;39.014;2022-08-14T07:32:45;128.52;;;48.58;;
64487;SDS011;50864;45.050;39.014;2022-08-14T07:35:12;120.82;;;47.55;;
64487;SDS011;50864;45.050;39.014;2022-08-14T07:37:37;162.52;;;56.28;;
64487;SDS011;50864;45.050;39.014;2022-08-14T07:40:04;147.10;;;52.75;;
64487;SDS011;50864;45.050;39.014;2022-08-14T07:42:30;121.97;;;47.13;;
64487;SDS011;50864;45.050;39.014;2022-08-14T07:44:57;121.78;;;47.35;;
64487;SDS011;50864;45.050;39.014;2022-08-14T07:47:23;97.62;;;40.42;;
64487;SDS011;50864;45.050;39.014;2022-08-14T07:50:12;110.07;;;40.70;;
64487;SDS011;50864;45.050;39.014;2022-08-14T07:52:36;108.45;;;41.42;;
64487;SDS011;50864;45.050;39.014;2022-08-14T07:55:03;89.32;;;35.28;;
64487;SDS011;50864;45.050;39.014;2022-08-14T07:57:29;106.05;;;41.10;;
64487;SDS011;50864;45.050;39.014;2022-08-14T07:59:55;106.12;;;42.05;;
64487;SDS011;50864;45.050;39.014;2022-08-14T08:02:21;93.55;;;38.08;;
64487;SDS011;50864;45.050;39.014;2022-08-14T08:04:49;109.70;;;39.92;;
64487;SDS011;50864;45.050;39.014;2022-08-14T08:07:15;83.93;;;35.97;;
64487;SDS011;50864;45.050;39.014;2022-08-14T08:09:47;106.80;;;39.10;;
64487;SDS011;50864;45.050;39.014;2022-08-14T08:12:14;106.68;;;39.25;;
64487;SDS011;50864;45.050;39.014;2022-08-14T08:14:40;106.93;;;39.80;;
64487;SDS011;50864;45.050;39.014;2022-08-14T08:17:08;88.03;;;35.33;;
64487;SDS011;50864;45.050;39.014;2022-08-14T08:19:34;95.50;;;39.25;;
64487;SDS011;50864;45.050;39.014;2022-08-14T08:22:02;114.75;;;40.53;;
64487;SDS011;50864;45.050;39.014;2022-08-14T08:24:28;115.90;;;39.97;;
64487;SDS011;50864;45.050;39.014;2022-08-14T08:26:54;85.20;;;34.53;;
64487;SDS011;50864;45.050;39.014;2022-08-14T08:29:20;92.32;;;37.33;;
64487;SDS011;50864;45.050;39.014;2022-08-14T08:31:47;89.40;;;33.50;;
64487;SDS011;50864;45.050;39.014;2022-08-14T08:34:15;101.03;;;38.15;;
64487;SDS011;50864;45.050;39.014;2022-08-14T08:36:42;89.05;;;37.55;;
64487;SDS011;50864;45.050;39.014;2022-08-14T08:39:08;79.75;;;31.85;;
64487;SDS011;50864;45.050;39.014;2022-08-14T08:41:45;50.35;;;22.67;;
64487;SDS011;50864;45.050;39.014;2022-08-14T08:44:12;60.40;;;24.42;;
64487;SDS011;50864;45.050;39.014;2022-08-14T08:46:38;49.03;;;18.65;;
64487;SDS011;50864;45.050;39.014;2022-08-14T08:49:04;52.85;;;22.35;;
64487;SDS011;50864;45.050;39.014;2022-08-14T08:51:34;37.55;;;18.12;;
64487;SDS011;50864;45.050;39.014;2022-08-14T08:54:04;72.47;;;29.50;;
64487;SDS011;50864;45.050;39.014;2022-08-14T09:01:47;39.72;;;18.00;;
64487;SDS011;50864;45.050;39.014;2022-08-14T09:04:14;49.20;;;20.23;;
64487;SDS011;50864;45.050;39.014;2022-08-14T09:06:43;46.78;;;19.80;;
64487;SDS011;50864;45.050;39.014;2022-08-14T09:09:16;40.55;;;16.25;;
64487;SDS011;50864;45.050;39.014;2022-08-14T09:11:42;32.17;;;12.70;;
64487;SDS011;50864;45.050;39.014;2022-08-14T09:14:08;32.13;;;11.63;;
64487;SDS011;50864;45.050;39.014;2022-08-14T09:16:34;24.58;;;10.50;;
64487;SDS011;50864;45.050;39.014;2022-08-14T09:19:00;20.33;;;10.27;;
64487;SDS011;50864;45.050;39.014;2022-08-14T09:21:26;21.52;;;10.20;;
64487;SDS011;50864;45.050;39.014;2022-08-14T09:23:53;27.77;;;13.07;;
64487;SDS011;50864;45.050;39.014;2022-08-14T09:26:19;28.95;;;11.77;;
64487;SDS011;50864;45.050;39.014;2022-08-14T09:28:45;27.92;;;12.37;;
64487;SDS011;50864;45.050;39.014;2022-08-14T09:31:11;26.90;;;10.38;;
64487;SDS011;50864;45.050;39.014;2022-08-14T09:47:04;25.10;;;11.25;;
64487;SDS011;50864;45.050;39.014;2022-08-14T09:49:35;22.65;;;9.75;;
64487;SDS011;50864;45.050;39.014;2022-08-14T09:52:05;19.20;;;9.02;;
64487;SDS011;50864;45.050;39.014;2022-08-14T09:54:50;19.12;;;9.93;;
64487;SDS011;50864;45.050;39.014;2022-08-14T09:57:23;21.30;;;9.90;;
64487;SDS011;50864;45.050;39.014;2022-08-14T09:59:50;25.02;;;10.93;;
64487;SDS011;50864;45.050;39.014;2022-08-14T10:02:27;22.85;;;10.02;;
64487;SDS011;50864;45.050;39.014;2022-08-14T10:05:07;19.65;;;8.32;;
64487;SDS011;50864;45.050;39.014;2022-08-14T10:07:55;15.88;;;8.65;;
64487;SDS011;50864;45.050;39.014;2022-08-14T10:12:53;18.12;;;7.90;;
64487;SDS011;50864;45.050;39.014;2022-08-14T10:15:21;14.57;;;7.95;;
64487;SDS011;50864;45.050;39.014;2022-08-14T10:17:47;17.67;;;9.18;;
64487;SDS011;50864;45.050;39.014;2022-08-14T10:20:14;16.05;;;9.13;;
64487;SDS011;50864;45.050;39.014;2022-08-14T10:22:41;17.05;;;7.50;;
64487;SDS011;50864;45.050;39.014;2022-08-14T10:25:11;19.23;;;8.40;;
64487;SDS011;50864;45.050;39.014;2022-08-14T10:27:38;20.17;;;9.27;;
64487;SDS011;50864;45.050;39.014;2022-08-14T10:30:11;15.60;;;8.57;;
64487;SDS011;50864;45.050;39.014;2022-08-14T10:32:43;19.00;;;8.30;;
64487;SDS011;50864;45.050;39.014;2022-08-14T10:35:11;19.62;;;7.97;;
64487;SDS011;50864;45.050;39.014;2022-08-14T10:37:37;17.58;;;8.27;;
64487;SDS011;50864;45.050;39.014;2022-08-14T10:40:04;23.23;;;9.60;;
64487;SDS011;50864;45.050;39.014;2022-08-14T10:42:38;16.77;;;8.43;;
64487;SDS011;50864;45.050;39.014;2022-08-14T10:47:46;17.15;;;7.90;;
64487;SDS011;50864;45.050;39.014;2022-08-14T10:50:13;35.72;;;8.85;;
64487;SDS011;50864;45.050;39.014;2022-08-14T10:52:39;16.90;;;9.07;;
64487;SDS011;50864;45.050;39.014;2022-08-14T10:57:49;18.65;;;7.90;;
64487;SDS011;50864;45.050;39.014;2022-08-14T11:00:16;15.55;;;7.47;;
64487;SDS011;50864;45.050;39.014;2022-08-14T11:02:43;20.15;;;7.57;;
64487;SDS011;50864;45.050;39.014;2022-08-14T11:05:10;16.80;;;7.25;;
64487;SDS011;50864;45.050;39.014;2022-08-14T11:08:01;16.65;;;7.20;;
64487;SDS011;50864;45.050;39.014;2022-08-14T11:13:04;15.77;;;8.55;;
64487;SDS011;50864;45.050;39.014;2022-08-14T11:15:31;16.08;;;8.18;;
64487;SDS011;50864;45.050;39.014;2022-08-14T11:17:57;20.52;;;7.78;;
64487;SDS011;50864;45.050;39.014;2022-08-14T11:20:24;23.02;;;9.05;;
64487;SDS011;50864;45.050;39.014;2022-08-14T11:22:51;30.55;;;12.20;;
64487;SDS011;50864;45.050;39.014;2022-08-14T11:25:19;15.23;;;7.43;;
64487;SDS011;50864;45.050;39.014;2022-08-14T11:27:49;16.35;;;7.80;;
64487;SDS011;50864;45.050;39.014;2022-08-14T11:30:22;22.33;;;8.77;;
64487;SDS011;50864;45.050;39.014;2022-08-14T11:32:49;15.07;;;7.55;;
64487;SDS011;50864;45.050;39.014;2022-08-14T11:35:22;17.40;;;8.50;;
64487;SDS011;50864;45.050;39.014;2022-08-14T11:37:55;22.15;;;10.15;;
64487;SDS011;50864;45.050;39.014;2022-08-14T11:40:23;17.02;;;8.20;;
64487;SDS011;50864;45.050;39.014;2022-08-14T11:42:49;14.15;;;7.05;;
64487;SDS011;50864;45.050;39.014;2022-08-14T11:45:18;15.68;;;7.45;;
64487;SDS011;50864;45.050;39.014;2022-08-14T11:47:44;16.08;;;7.97;;
64487;SDS011;50864;45.050;39.014;2022-08-14T11:50:11;18.25;;;9.82;;
64487;SDS011;50864;45.050;39.014;2022-08-14T11:52:37;15.70;;;8.30;;
64487;SDS011;50864;45.050;39.014;2022-08-14T11:55:06;17.02;;;7.93;;
64487;SDS011;50864;45.050;39.014;2022-08-14T11:57:32;23.25;;;8.82;;
64487;SDS011;50864;45.050;39.014;2022-08-14T12:00:01;15.23;;;8.13;;
64487;SDS011;50864;45.050;39.014;2022-08-14T12:02:29;21.67;;;8.60;;
64487;SDS011;50864;45.050;39.014;2022-08-14T12:04:57;18.50;;;8.40;;
64487;SDS011;50864;45.050;39.014;2022-08-14T12:07:23;21.65;;;10.82;;
64487;SDS011;50864;45.050;39.014;2022-08-14T12:09:53;24.70;;;11.43;;
64487;SDS011;50864;45.050;39.014;2022-08-14T12:12:21;29.00;;;11.40;;
64487;SDS011;50864;45.050;39.014;2022-08-14T12:14:48;31.30;;;12.60;;
64487;SDS011;50864;45.050;39.014;2022-08-14T12:17:15;30.98;;;11.95;;
64487;SDS011;50864;45.050;39.014;2022-08-14T12:22:13;29.98;;;12.73;;
64487;SDS011;50864;45.050;39.014;2022-08-14T12:24:40;31.58;;;12.65;;
64487;SDS011;50864;45.050;39.014;2022-08-14T12:27:07;22.77;;;10.20;;
64487;SDS011;50864;45.050;39.014;2022-08-14T12:29:33;29.98;;;12.30;;
64487;SDS011;50864;45.050;39.014;2022-08-14T12:31:59;34.25;;;13.35;;
64487;SDS011;50864;45.050;39.014;2022-08-14T12:34:32;28.00;;;11.63;;
64487;SDS011;50864;45.050;39.014;2022-08-14T12:37:02;28.80;;;12.80;;
64487;SDS011;50864;45.050;39.014;2022-08-14T12:39:30;21.40;;;10.50;;
64487;SDS011;50864;45.050;39.014;2022-08-14T12:41:58;22.83;;;10.35;;
64487;SDS011;50864;45.050;39.014;2022-08-14T12:47:04;25.20;;;11.57;;
64487;SDS011;50864;45.050;39.014;2022-08-14T12:49:30;29.87;;;11.70;;
64487;SDS011;50864;45.050;39.014;2022-08-14T12:51:56;30.95;;;11.77;;
64487;SDS011;50864;45.050;39.014;2022-08-14T12:54:23;31.55;;;12.07;;
64487;SDS011;50864;45.050;39.014;2022-08-14T12:56:49;28.55;;;11.40;;
64487;SDS011;50864;45.050;39.014;2022-08-14T12:59:15;25.02;;;11.38;;
64487;SDS011;50864;45.050;39.014;2022-08-14T13:01:43;35.60;;;13.80;;
64487;SDS011;50864;45.050;39.014;2022-08-14T13:04:13;23.10;;;10.38;;
64487;SDS011;50864;45.050;39.014;2022-08-14T13:06:41;27.90;;;12.48;;
64487;SDS011;50864;45.050;39.014;2022-08-14T13:09:09;39.78;;;15.32;;
64487;SDS011;50864;45.050;39.014;2022-08-14T13:11:36;35.47;;;14.35;;
64487;SDS011;50864;45.050;39.014;2022-08-14T13:14:04;120.95;;;45.00;;
64487;SDS011;50864;45.050;39.014;2022-08-14T13:16:30;55.03;;;20.85;;
64487;SDS011;50864;45.050;39.014;2022-08-14T13:18:57;30.88;;;13.10;;
64487;SDS011;50864;45.050;39.014;2022-08-14T13:21:27;59.90;;;19.60;;
64487;SDS011;50864;45.050;39.014;2022-08-14T13:23:53;42.13;;;16.40;;
64487;SDS011;50864;45.050;39.014;2022-08-14T13:26:22;49.90;;;18.12;;
64487;SDS011;50864;45.050;39.014;2022-08-14T13:28:49;56.37;;;20.10;;
64487;SDS011;50864;45.050;39.014;2022-08-14T13:31:16;49.30;;;17.90;;
64487;SDS011;50864;45.050;39.014;2022-08-14T13:33:44;51.20;;;18.62;;
64487;SDS011;50864;45.050;39.014;2022-08-14T13:36:10;45.75;;;16.52;;
64487;SDS011;50864;45.050;39.014;2022-08-14T13:38:36;46.72;;;17.52;;
64487;SDS011;50864;45.050;39.014;2022-08-14T13:41:02;54.22;;;18.90;;
64487;SDS011;50864;45.050;39.014;2022-08-14T13:43:28;54.92;;;19.08;;
64487;SDS011;50864;45.050;39.014;2022-08-14T13:45:54;45.65;;;17.30;;
64487;SDS011;50864;45.050;39.014;2022-08-14T13:48:21;55.20;;;20.05;;
64487;SDS011;50864;45.050;39.014;2022-08-14T13:50:51;63.42;;;20.85;;
64487;SDS011;50864;45.050;39.014;2022-08-14T13:53:18;67.28;;;22.85;;
64487;SDS011;50864;45.050;39.014;2022-08-14T13:55:46;81.15;;;25.60;;
64487;SDS011;50864;45.050;39.014;2022-08-14T13:58:14;80.85;;;27.30;;
64487;SDS011;50864;45.050;39.014;2022-08-14T14:00:40;66.47;;;23.30;;
64487;SDS011;50864;45.050;39.014;2022-08-14T14:03:07;82.32;;;29.20;;
64487;SDS011;50864;45.050;39.014;2022-08-14T14:05:34;75.78;;;26.75;;
64487;SDS011;50864;45.050;39.014;2022-08-14T14:08:01;83.15;;;27.52;;
64487;SDS011;50864;45.050;39.014;2022-08-14T14:10:29;80.53;;;26.98;;
64487;SDS011;50864;45.050;39.014;2022-08-14T14:12:56;80.18;;;25.42;;
64487;SDS011;50864;45.050;39.014;2022-08-14T14:15:22;82.12;;;25.33;;
64487;SDS011;50864;45.050;39.014;2022-08-14T14:17:49;81.53;;;25.65;;
64487;SDS011;50864;45.050;39.014;2022-08-14T14:20:16;59.17;;;23.15;;
64487;SDS011;50864;45.050;39.014;2022-08-14T14:22:44;94.97;;;31.15;;
64487;SDS011;50864;45.050;39.014;2022-08-14T14:25:11;108.10;;;35.35;;
64487;SDS011;50864;45.050;39.014;2022-08-14T14:27:42;149.27;;;43.40;;
64487;SDS011;50864;45.050;39.014;2022-08-14T14:30:11;146.18;;;43.22;;
64487;SDS011;50864;45.050;39.014;2022-08-14T14:32:40;113.57;;;37.35;;
64487;SDS011;50864;45.050;39.014;2022-08-14T14:35:12;109.17;;;31.50;;
64487;SDS011;50864;45.050;39.014;2022-08-14T14:37:42;138.62;;;42.13;;